createdAt,value
2023-03-28T00:00:17.540Z,95112.63
2023-03-28T00:02:44.055Z,95117.34
2023-03-28T00:05:11.391Z,95126.16
2023-03-28T00:07:38.656Z,95114.09
2023-03-28T00:10:07.993Z,95113.13
2023-03-28T00:12:34.445Z,95110.53
2023-03-28T00:15:01.670Z,95106.94
2023-03-28T00:17:28.158Z,95105.66
2023-03-28T00:19:54.592Z,95130.88
2023-03-28T00:22:21.468Z,95114.09
2023-03-28T00:24:48.889Z,95109.69
2023-03-28T00:27:16.015Z,95114.41
2023-03-28T00:29:42.525Z,95100.09
2023-03-28T00:32:09.185Z,95126.78
2023-03-28T00:34:35.945Z,95133.00
2023-03-28T00:37:05.562Z,95120.63
2023-03-28T00:39:32.215Z,95130.22
2023-03-28T00:42:01.650Z,95147.81
2023-03-28T00:44:48.645Z,95147.00
2023-03-28T00:47:36.906Z,95129.06
2023-03-28T00:50:07.304Z,95132.66
2023-03-28T00:52:39.969Z,95133.94
2023-03-28T00:55:07.998Z,95122.56
2023-03-28T00:57:34.855Z,95138.50
2023-03-28T01:00:01.403Z,95129.41
2023-03-28T01:02:27.904Z,95127.44
2023-03-28T01:05:01.183Z,95119.97
2023-03-28T01:07:35.466Z,95137.19
2023-03-28T01:10:03.995Z,95121.59
2023-03-28T01:12:33.199Z,95132.16
2023-03-28T01:15:01.018Z,95123.88
2023-03-28T01:17:28.061Z,95128.94
2023-03-28T01:20:14.712Z,95125.81
2023-03-28T01:23:04.484Z,95137.88
2023-03-28T01:25:54.729Z,95130.06
2023-03-28T01:28:32.641Z,95125.19
2023-03-28T01:30:59.041Z,95119.66
2023-03-28T01:33:28.308Z,95123.53
2023-03-28T01:36:34.197Z,95133.28
2023-03-28T01:39:01.962Z,95121.91
2023-03-28T01:41:34.289Z,95130.38
2023-03-28T01:44:21.126Z,95129.41
2023-03-28T01:47:16.900Z,95122.09
2023-03-28T01:50:03.307Z,95125.97
2023-03-28T01:52:41.192Z,95119.94
2023-03-28T01:55:14.345Z,95131.69
2023-03-28T01:57:49.931Z,95135.56
2023-03-28T02:00:21.310Z,95141.09
2023-03-28T02:02:57.265Z,95132.31
2023-03-28T02:05:25.128Z,95125.50
2023-03-28T02:07:54.691Z,95136.22
2023-03-28T02:10:24.106Z,95124.19
2023-03-28T02:12:59.293Z,95139.00
2023-03-28T02:15:27.184Z,95132.16
2023-03-28T02:17:59.162Z,95143.69
2023-03-28T02:20:28.654Z,95141.88
2023-03-28T02:23:15.322Z,95140.75
2023-03-28T02:25:41.834Z,95137.16
2023-03-28T02:28:09.050Z,95144.66
2023-03-28T02:30:36.851Z,95144.47
2023-03-28T02:33:04.704Z,95154.09
2023-03-28T02:35:49.742Z,95159.47
2023-03-28T02:38:27.966Z,95150.22
2023-03-28T02:41:03.614Z,95160.13
2023-03-28T02:43:46.082Z,95154.13
2023-03-28T02:46:31.416Z,95151.00
2023-03-28T02:49:04.200Z,95158.03
2023-03-28T02:51:49.068Z,95155.09
2023-03-28T02:54:36.239Z,95153.00
2023-03-28T02:57:18.647Z,95154.31
2023-03-28T02:59:45.493Z,95159.66
2023-03-28T03:02:16.326Z,95146.63
2023-03-28T03:04:43.081Z,95163.06
2023-03-28T03:07:09.693Z,95159.34
2023-03-28T03:09:36.139Z,95153.81
2023-03-28T03:12:02.609Z,95157.22
2023-03-28T03:14:29.034Z,95157.03
2023-03-28T03:16:55.496Z,95167.94
2023-03-28T03:19:21.942Z,95170.72
2023-03-28T03:21:49.933Z,95165.81
2023-03-28T03:24:16.373Z,95162.41
2023-03-28T03:26:42.899Z,95159.97
2023-03-28T03:29:09.366Z,95160.97
2023-03-28T03:31:37.033Z,95167.78
2023-03-28T03:34:04.146Z,95163.91
2023-03-28T03:36:31.758Z,95173.97
2023-03-28T03:38:58.419Z,95167.94
2023-03-28T03:41:24.935Z,95172.38
2023-03-28T03:43:51.506Z,95176.75
2023-03-28T03:46:18.086Z,95172.03
2023-03-28T03:48:49.673Z,95171.38
2023-03-28T03:51:16.932Z,95174.97
2023-03-28T03:53:43.402Z,95170.72
2023-03-28T03:56:10.243Z,95175.09
2023-03-28T03:58:36.703Z,95173.31
2023-03-28T04:01:03.623Z,95170.72
2023-03-28T04:03:30.173Z,95175.59
2023-03-28T04:05:58.158Z,95169.88
2023-03-28T04:08:24.950Z,95179.13
2023-03-28T04:10:51.433Z,95177.69
2023-03-28T04:13:17.891Z,95186.78
2023-03-28T04:15:46.072Z,95181.25
2023-03-28T04:18:12.534Z,95178.78
2023-03-28T04:20:40.461Z,95189.19
2023-03-28T04:23:08.546Z,95196.66
2023-03-28T04:25:35.223Z,95189.19
2023-03-28T04:28:01.942Z,95191.47
2023-03-28T04:30:28.546Z,95189.53
2023-03-28T04:32:55.050Z,95192.13
2023-03-28T04:35:21.652Z,95205.91
2023-03-28T04:37:49.275Z,95207.06
2023-03-28T04:40:16.257Z,95191.16
2023-03-28T04:42:42.716Z,95202.88
2023-03-28T04:45:09.521Z,95193.78
2023-03-28T04:47:40.222Z,95198.66
2023-03-28T04:50:10.316Z,95201.94
2023-03-28T04:52:36.825Z,95207.13
2023-03-28T04:55:03.714Z,95211.19
2023-03-28T04:57:30.389Z,95210.53
2023-03-28T04:59:56.883Z,95205.16
2023-03-28T05:02:23.546Z,95197.03
2023-03-28T05:04:50.274Z,95192.47
2023-03-28T05:07:16.712Z,95193.47
2023-03-28T05:09:43.417Z,95197.06
2023-03-28T05:12:09.887Z,95189.91
2023-03-28T05:14:36.380Z,95197.56
2023-03-28T05:17:02.805Z,95187.81
2023-03-28T05:19:29.268Z,95196.41
2023-03-28T05:21:55.988Z,95195.28
2023-03-28T05:24:22.460Z,95201.66
2023-03-28T05:26:48.899Z,95197.72
2023-03-28T05:29:15.537Z,95194.47
2023-03-28T05:31:41.974Z,95191.06
2023-03-28T05:34:08.455Z,95201.94
2023-03-28T05:36:34.899Z,95200.66
2023-03-28T05:39:01.457Z,95201.66
2023-03-28T05:41:28.184Z,95211.06
2023-03-28T05:43:54.631Z,95211.91
2023-03-28T05:46:21.321Z,95216.44
2023-03-28T05:48:49.618Z,95213.19
2023-03-28T05:51:17.196Z,95226.69
2023-03-28T05:53:43.772Z,95233.06
2023-03-28T05:56:10.676Z,95235.16
2023-03-28T05:58:40.324Z,95231.91
2023-03-28T06:01:06.998Z,95215.47
2023-03-28T06:03:33.439Z,95227.34
2023-03-28T06:06:00.162Z,95218.41
2023-03-28T06:08:27.508Z,95224.09
2023-03-28T06:10:53.992Z,95219.06
2023-03-28T06:13:20.690Z,95225.91
2023-03-28T06:15:47.147Z,95224.75
2023-03-28T06:18:13.647Z,95225.13
2023-03-28T06:20:40.220Z,95225.75
2023-03-28T06:23:06.654Z,95226.59
2023-03-28T06:25:33.149Z,95228.84
2023-03-28T06:27:59.640Z,95237.31
2023-03-28T06:30:26.076Z,95230.66
2023-03-28T06:32:52.605Z,95239.28
2023-03-28T06:35:19.188Z,95232.28
2023-03-28T06:37:45.621Z,95221.84
2023-03-28T06:40:12.087Z,95234.06
2023-03-28T06:42:38.542Z,95222.34
2023-03-28T06:45:05.135Z,95230.66
2023-03-28T06:47:31.632Z,95225.75
2023-03-28T06:49:58.211Z,95228.34
2023-03-28T06:52:24.673Z,95232.28
2023-03-28T06:54:51.814Z,95237.81
2023-03-28T06:57:18.310Z,95240.88
2023-03-28T06:59:44.856Z,95232.56
2023-03-28T07:02:12.097Z,95237.28
2023-03-28T07:04:38.647Z,95248.88
2023-03-28T07:07:05.189Z,95241.53
2023-03-28T07:09:31.693Z,95231.06
2023-03-28T07:11:58.115Z,95235.78
2023-03-28T07:14:24.678Z,95237.41
2023-03-28T07:16:51.200Z,95253.72
2023-03-28T07:19:17.628Z,95250.59
2023-03-28T07:21:44.056Z,95254.00
2023-03-28T07:24:10.646Z,95253.06
2023-03-28T07:26:37.129Z,95259.59
2023-03-28T07:29:03.685Z,95281.91
2023-03-28T07:31:30.175Z,95258.28
2023-03-28T07:33:58.208Z,95248.81
2023-03-28T07:36:26.506Z,95267.56
2023-03-28T07:38:52.935Z,95253.06
2023-03-28T07:41:19.969Z,95273.91
2023-03-28T07:43:46.428Z,95265.78
2023-03-28T07:46:16.995Z,95286.13
2023-03-28T07:48:44.016Z,95281.09
2023-03-28T07:51:10.816Z,95287.28
2023-03-28T07:53:38.017Z,95291.88
2023-03-28T07:56:05.295Z,95280.94
2023-03-28T07:58:31.775Z,95285.00
2023-03-28T08:01:03.624Z,95297.88
2023-03-28T08:03:30.250Z,95286.31
2023-03-28T08:05:57.965Z,95286.00
2023-03-28T08:08:24.450Z,95310.78
2023-03-28T08:10:51.430Z,95302.47
2023-03-28T08:13:18.476Z,95301.31
2023-03-28T08:15:44.946Z,95304.25
2023-03-28T08:18:13.027Z,95309.13
2023-03-28T08:20:39.483Z,95307.50
2023-03-28T08:23:07.436Z,95311.09
2023-03-28T08:25:33.879Z,95310.06
2023-03-28T08:28:00.346Z,95316.59
2023-03-28T08:30:26.920Z,95318.56
2023-03-28T08:32:53.515Z,95317.28
2023-03-28T08:35:20.108Z,95308.13
2023-03-28T08:37:46.580Z,95309.13
2023-03-28T08:40:16.345Z,95303.25
2023-03-28T08:42:42.814Z,95320.50
2023-03-28T08:45:25.406Z,95328.66
2023-03-28T08:47:54.988Z,95328.00
2023-03-28T08:50:43.422Z,95319.53
2023-03-28T08:53:37.506Z,95331.09
2023-03-28T08:56:06.175Z,95342.00
2023-03-28T08:58:37.609Z,95328.31
2023-03-28T09:01:04.463Z,95319.16
2023-03-28T09:03:32.822Z,95323.34
2023-03-28T09:06:01.387Z,95327.91
2023-03-28T09:08:40.491Z,95321.69
2023-03-28T09:11:12.767Z,95332.94
2023-03-28T09:13:53.600Z,95328.19
2023-03-28T09:16:26.227Z,95339.50
2023-03-28T09:19:11.361Z,95335.06
2023-03-28T09:21:37.775Z,95329.28
2023-03-28T09:24:10.307Z,95334.34
2023-03-28T09:26:40.730Z,95344.47
2023-03-28T09:29:13.305Z,95345.47
2023-03-28T09:31:47.887Z,95337.06
2023-03-28T09:34:27.397Z,95345.09
2023-03-28T09:36:56.706Z,95354.22
2023-03-28T09:39:30.333Z,95359.59
2023-03-28T09:42:11.345Z,95347.16
2023-03-28T09:44:53.406Z,95351.88
2023-03-28T09:47:21.443Z,95369.63
2023-03-28T09:49:48.505Z,95382.72
2023-03-28T09:52:16.294Z,95386.97
2023-03-28T09:54:43.341Z,95390.44
2023-03-28T09:57:09.825Z,95398.41
2023-03-28T09:59:37.065Z,95395.31
2023-03-28T10:02:04.275Z,95405.97
2023-03-28T10:04:32.423Z,95410.19
2023-03-28T10:07:22.335Z,95420.78
2023-03-28T10:09:50.698Z,95430.38
2023-03-28T10:12:25.448Z,95433.66
2023-03-28T10:14:52.056Z,95435.25
2023-03-28T10:17:26.838Z,95430.72
2023-03-28T10:19:58.111Z,95443.75
2023-03-28T10:22:30.951Z,95427.78
2023-03-28T10:24:57.668Z,95425.50
2023-03-28T10:27:31.952Z,95433.00
2023-03-28T10:30:06.924Z,95439.03
2023-03-28T10:32:33.448Z,95434.66
2023-03-28T10:35:25.739Z,95429.91
2023-03-28T10:37:56.533Z,95422.75
2023-03-28T10:40:25.323Z,95439.88
2023-03-28T10:42:52.090Z,95456.81
2023-03-28T10:45:19.694Z,95441.00
2023-03-28T10:47:46.725Z,95435.31
2023-03-28T10:50:27.609Z,95441.81
2023-03-28T10:53:02.152Z,95447.69
2023-03-28T10:55:37.610Z,95454.88
2023-03-28T10:58:04.033Z,95442.28
2023-03-28T11:00:34.376Z,95450.16
2023-03-28T11:03:07.027Z,95458.28
2023-03-28T11:06:05.824Z,95439.50
2023-03-28T11:08:41.570Z,95440.16
2023-03-28T11:11:14.205Z,95474.75
2023-03-28T11:13:53.230Z,95477.69
2023-03-28T11:16:42.824Z,95490.75
2023-03-28T11:19:27.793Z,95495.31
2023-03-28T11:21:57.372Z,95494.66
2023-03-28T11:24:26.857Z,95500.84
2023-03-28T11:27:14.723Z,95485.53
2023-03-28T11:29:49.288Z,95498.56
2023-03-28T11:32:15.945Z,95523.16
2023-03-28T11:34:46.268Z,95510.09
2023-03-28T11:37:17.556Z,95502.75
2023-03-28T11:39:44.444Z,95531.28
2023-03-28T11:42:20.707Z,95503.94
2023-03-28T11:44:58.818Z,95514.22
2023-03-28T11:47:28.248Z,95504.09
2023-03-28T11:49:59.274Z,95506.72
2023-03-28T11:52:28.371Z,95509.34
2023-03-28T11:55:01.197Z,95511.94
2023-03-28T11:57:31.261Z,95521.06
2023-03-28T12:02:59.553Z,95513.38
2023-03-28T12:05:35.744Z,95525.47
2023-03-28T12:08:04.451Z,95519.94
2023-03-28T12:10:35.983Z,95540.16
2023-03-28T12:13:11.664Z,95524.50
2023-03-28T12:15:49.568Z,95536.41
2023-03-28T12:18:27.135Z,95526.63
2023-03-28T12:21:01.401Z,95549.47
2023-03-28T12:23:48.306Z,95541.97
2023-03-28T12:26:38.178Z,95549.78
2023-03-28T12:29:09.696Z,95552.34
2023-03-28T12:31:42.168Z,95563.47
2023-03-28T12:34:23.544Z,95557.28
2023-03-28T12:36:57.580Z,95563.78
2023-03-28T12:39:35.470Z,95552.69
2023-03-28T12:42:04.014Z,95560.03
2023-03-28T12:44:36.394Z,95570.59
2023-03-28T12:47:06.080Z,95561.00
2023-03-28T12:49:51.375Z,95579.94
2023-03-28T12:52:24.481Z,95597.03
2023-03-28T12:54:57.635Z,95564.28
2023-03-28T12:57:40.918Z,95571.00
2023-03-28T13:00:26.646Z,95578.16
2023-03-28T13:02:53.102Z,95565.94
2023-03-28T13:05:22.976Z,95585.38
2023-03-28T13:07:58.700Z,95615.53
2023-03-28T13:10:31.225Z,95577.06
2023-03-28T13:13:01.702Z,95574.78
2023-03-28T13:15:31.045Z,95593.88
2023-03-28T13:18:16.351Z,95577.88
2023-03-28T13:20:47.854Z,95583.44
2023-03-28T13:23:15.309Z,95582.13
2023-03-28T13:25:42.737Z,95579.34
2023-03-28T13:28:12.288Z,95571.19
2023-03-28T13:30:47.647Z,95568.06
2023-03-28T13:33:26.108Z,95605.31
2023-03-28T13:35:58.633Z,95608.44
2023-03-28T13:38:32.697Z,95603.69
2023-03-28T13:41:06.383Z,95591.94
2023-03-28T13:43:36.023Z,95582.78
2023-03-28T13:46:07.493Z,95587.69
2023-03-28T13:48:37.220Z,95587.38
2023-03-28T13:51:06.831Z,95586.69
2023-03-28T13:53:47.067Z,95584.91
2023-03-28T13:56:19.992Z,95582.47
2023-03-28T13:58:48.324Z,95582.47
2023-03-28T14:01:19.299Z,95583.94
2023-03-28T14:03:47.249Z,95605.31
2023-03-28T14:06:22.726Z,95600.09
2023-03-28T14:08:50.458Z,95604.81
2023-03-28T14:11:18.844Z,95591.44
2023-03-28T14:13:46.135Z,95588.00
2023-03-28T14:16:12.668Z,95588.31
2023-03-28T14:18:44.189Z,95593.53
2023-03-28T14:21:10.982Z,95617.38
2023-03-28T14:23:39.168Z,95610.69
2023-03-28T14:26:14.843Z,95602.03
2023-03-28T14:28:41.781Z,95603.66
2023-03-28T14:31:14.920Z,95603.66
2023-03-28T14:33:41.959Z,95600.88
2023-03-28T14:36:14.174Z,95602.03
2023-03-28T14:38:40.675Z,95619.81
2023-03-28T14:41:12.053Z,95613.78
2023-03-28T14:43:38.611Z,95628.63
2023-03-28T14:46:08.001Z,95646.91
2023-03-28T14:48:36.858Z,95631.53
2023-03-28T14:51:05.851Z,95645.41
2023-03-28T14:53:37.712Z,95643.75
2023-03-28T14:56:09.330Z,95648.28
2023-03-28T14:58:38.378Z,95653.81
2023-03-28T15:01:05.659Z,95651.19
2023-03-28T15:03:33.769Z,95652.50
2023-03-28T15:06:01.570Z,95651.03
2023-03-28T15:08:37.862Z,95648.66
2023-03-28T15:11:22.392Z,95648.69
2023-03-28T15:14:01.078Z,95645.56
2023-03-28T15:16:28.539Z,95647.25
2023-03-28T15:19:09.381Z,95660.28
2023-03-28T15:21:36.766Z,95658.91
2023-03-28T15:24:04.316Z,95650.09
2023-03-28T15:26:38.271Z,95659.09
2023-03-28T15:29:07.136Z,95665.66
2023-03-28T15:31:37.814Z,95677.31
2023-03-28T15:34:08.679Z,95676.34
2023-03-28T15:36:35.251Z,95672.81
2023-03-28T15:39:10.756Z,95702.41
2023-03-28T15:41:42.402Z,95720.44
2023-03-28T15:44:11.410Z,95714.31
2023-03-28T15:46:38.053Z,95718.50
2023-03-28T15:49:06.235Z,95710.25
2023-03-28T15:51:37.812Z,95732.50
2023-03-28T15:54:04.917Z,95730.78
2023-03-28T15:56:33.972Z,95730.13
2023-03-28T15:59:01.900Z,95724.47
2023-03-28T16:01:30.542Z,95729.69
2023-03-28T16:04:15.752Z,95732.66
2023-03-28T16:06:45.095Z,95735.19
2023-03-28T16:09:18.060Z,95732.72
2023-03-28T16:11:45.940Z,95750.97
2023-03-28T16:14:21.375Z,95761.00
2023-03-28T16:16:52.871Z,95756.06
2023-03-28T16:19:21.159Z,95764.63
2023-03-28T16:21:48.023Z,95773.72
2023-03-28T16:24:14.728Z,95758.94
2023-03-28T16:26:41.340Z,95768.50
2023-03-28T16:29:08.071Z,95756.97
2023-03-28T16:31:34.590Z,95772.59
2023-03-28T16:34:01.143Z,95769.19
2023-03-28T16:36:27.632Z,95761.66
2023-03-28T16:38:54.107Z,95771.41
2023-03-28T16:41:20.830Z,95768.13
2023-03-28T16:43:47.569Z,95766.59
2023-03-28T16:46:14.071Z,95777.53
2023-03-28T16:48:40.938Z,95773.34
2023-03-28T16:51:08.099Z,95775.56
2023-03-28T16:53:34.988Z,95787.31
2023-03-28T16:56:02.185Z,95786.47
2023-03-28T16:58:29.782Z,95785.91
2023-03-28T17:00:56.730Z,95784.63
2023-03-28T17:03:23.781Z,95785.00
2023-03-28T17:05:50.507Z,95782.47
2023-03-28T17:08:16.991Z,95780.25
2023-03-28T17:10:43.870Z,95788.47
2023-03-28T17:13:10.630Z,95795.69
2023-03-28T17:15:37.280Z,95806.31
2023-03-28T17:18:05.703Z,95804.84
2023-03-28T17:20:32.501Z,95792.19
2023-03-28T17:22:58.955Z,95805.22
2023-03-28T17:25:25.706Z,95801.63
2023-03-28T17:27:52.387Z,95816.81
2023-03-28T17:30:18.977Z,95817.13
2023-03-28T17:32:45.598Z,95821.94
2023-03-28T17:35:12.293Z,95825.91
2023-03-28T17:37:39.176Z,95822.16
2023-03-28T17:40:06.344Z,95823.66
2023-03-28T17:42:32.800Z,95824.09
2023-03-28T17:44:59.237Z,95832.75
2023-03-28T17:47:25.791Z,95836.00
2023-03-28T17:49:52.399Z,95838.22
2023-03-28T17:52:19.231Z,95849.22
2023-03-28T17:54:45.940Z,95846.78
2023-03-28T17:57:12.607Z,95862.69
2023-03-28T17:59:39.141Z,95854.59
2023-03-28T18:02:05.672Z,95858.59
2023-03-28T18:04:32.223Z,95849.13
2023-03-28T18:06:58.884Z,95851.38
2023-03-28T18:09:25.694Z,95853.81
2023-03-28T18:11:52.490Z,95845.63
2023-03-28T18:14:19.026Z,95874.16
2023-03-28T18:16:45.645Z,95870.66
2023-03-28T18:19:17.738Z,95864.63
2023-03-28T18:21:44.978Z,95859.38
2023-03-28T18:24:12.354Z,95871.41
2023-03-28T18:26:38.942Z,95872.47
2023-03-28T18:29:05.854Z,95863.16
2023-03-28T18:31:32.765Z,95863.72
2023-03-28T18:33:59.309Z,95862.63
2023-03-28T18:36:26.170Z,95873.56
2023-03-28T18:38:56.077Z,95871.81
2023-03-28T18:41:22.959Z,95875.22
2023-03-28T18:43:49.545Z,95875.47
2023-03-28T18:46:16.505Z,95880.84
2023-03-28T18:48:43.742Z,95879.19
2023-03-28T18:51:10.371Z,95882.31
2023-03-28T18:53:37.891Z,95893.84
2023-03-28T18:56:07.890Z,95896.47
2023-03-28T18:58:34.692Z,95918.94
2023-03-28T19:01:03.493Z,95961.97
2023-03-28T19:03:31.679Z,95952.56
2023-03-28T19:06:18.182Z,95936.44
2023-03-28T19:08:44.947Z,95954.75
2023-03-28T19:11:13.307Z,95954.22
2023-03-28T19:13:41.039Z,95956.38
2023-03-28T19:16:10.247Z,95971.84
2023-03-28T19:18:37.828Z,95961.19
2023-03-28T19:21:04.561Z,95954.09
2023-03-28T19:23:31.277Z,95952.56
2023-03-28T19:25:58.055Z,95965.16
2023-03-28T19:28:24.627Z,95975.00
2023-03-28T19:31:01.846Z,95983.59
2023-03-28T19:33:29.057Z,95973.63
2023-03-28T19:35:55.860Z,95979.22
2023-03-28T19:38:23.037Z,95981.94
2023-03-28T19:40:49.899Z,95980.56
2023-03-28T19:43:20.953Z,95976.88
2023-03-28T19:45:48.501Z,95986.50
2023-03-28T19:48:15.189Z,95987.47
2023-03-28T19:50:42.168Z,95983.47
2023-03-28T19:53:10.213Z,95987.28
2023-03-28T19:55:37.256Z,95997.94
2023-03-28T19:58:05.053Z,96004.50
2023-03-28T20:00:32.255Z,95999.31
2023-03-28T20:02:58.885Z,95991.81
2023-03-28T20:05:25.406Z,95984.81
2023-03-28T20:07:51.896Z,95998.50
2023-03-28T20:10:18.566Z,96008.91
2023-03-28T20:12:44.991Z,96005.06
2023-03-28T20:15:11.674Z,96002.03
2023-03-28T20:17:38.240Z,96001.75
2023-03-28T20:20:05.044Z,96001.75
2023-03-28T20:22:34.241Z,96003.72
2023-03-28T20:25:01.365Z,96027.25
2023-03-28T20:27:29.207Z,96030.25
2023-03-28T20:29:55.903Z,96023.66
2023-03-28T20:32:22.444Z,96033.41
2023-03-28T20:34:49.157Z,96054.72
2023-03-28T20:37:17.400Z,96039.81
2023-03-28T20:39:48.324Z,96017.22
2023-03-28T20:42:14.768Z,96039.25
2023-03-28T20:44:41.259Z,96039.63
2023-03-28T20:47:08.752Z,96012.56
2023-03-28T20:49:36.170Z,96034.72
2023-03-28T20:52:02.768Z,96028.16
2023-03-28T20:54:29.478Z,96044.59
2023-03-28T20:56:56.188Z,96055.97
2023-03-28T20:59:23.850Z,96044.88
2023-03-28T21:01:51.473Z,96046.50
2023-03-28T21:04:17.899Z,96049.25
2023-03-28T21:06:46.003Z,96057.97
2023-03-28T21:09:18.069Z,96050.47
2023-03-28T21:11:45.149Z,96055.56
2023-03-28T21:14:13.030Z,96062.56
2023-03-28T21:16:39.774Z,96050.81
2023-03-28T21:19:06.267Z,96047.81
2023-03-28T21:21:33.313Z,96060.53
2023-03-28T21:24:00.281Z,96053.78
2023-03-28T21:26:26.849Z,96052.16
2023-03-28T21:28:53.425Z,96049.16
2023-03-28T21:31:21.216Z,96055.59
2023-03-28T21:33:48.664Z,96051.47
2023-03-28T21:36:19.192Z,96044.94
2023-03-28T21:38:46.923Z,96046.13
2023-03-28T21:41:13.716Z,96039.88
2023-03-28T21:43:40.147Z,96038.47
2023-03-28T21:46:07.596Z,96047.25
2023-03-28T21:48:34.892Z,96037.41
2023-03-28T21:51:01.663Z,96044.94
2023-03-28T21:53:37.734Z,96038.34
2023-03-28T21:56:04.822Z,96034.38
2023-03-28T21:58:32.726Z,96040.41
2023-03-28T22:01:01.267Z,96033.03
2023-03-28T22:03:28.657Z,96035.75
2023-03-28T22:05:55.656Z,96034.09
2023-03-28T22:08:22.538Z,96036.97
2023-03-28T22:10:52.633Z,96043.66
2023-03-28T22:13:19.433Z,96038.84
2023-03-28T22:15:45.954Z,96040.75
2023-03-28T22:18:12.577Z,96047.47
2023-03-28T22:20:39.954Z,96042.31
2023-03-28T22:23:06.969Z,96042.19
2023-03-28T22:25:35.904Z,96045.47
2023-03-28T22:28:04.311Z,96043.00
2023-03-28T22:30:31.376Z,96034.34
2023-03-28T22:32:58.163Z,96042.97
2023-03-28T22:35:24.741Z,96038.06
2023-03-28T22:37:51.467Z,96032.47
2023-03-28T22:40:18.981Z,96040.13
2023-03-28T22:42:45.519Z,96041.25
2023-03-28T22:45:11.995Z,96032.75
2023-03-28T22:47:41.989Z,96041.09
2023-03-28T22:50:09.665Z,96050.25
2023-03-28T22:52:38.058Z,96052.44
2023-03-28T22:55:05.446Z,96053.00
2023-03-28T22:57:31.985Z,96057.38
2023-03-28T22:59:58.695Z,96039.84
2023-03-28T23:02:25.201Z,96061.16
2023-03-28T23:04:51.821Z,96052.44
2023-03-28T23:07:18.545Z,96048.53
2023-03-28T23:09:45.006Z,96051.47
2023-03-28T23:12:11.478Z,96054.06
2023-03-28T23:14:37.960Z,96054.63
2023-03-28T23:17:04.775Z,96055.47
2023-03-28T23:19:32.029Z,96054.38
2023-03-28T23:21:59.464Z,96051.94
2023-03-28T23:24:28.848Z,96056.56
2023-03-28T23:26:56.035Z,96049.44
2023-03-28T23:29:23.032Z,96055.88
2023-03-28T23:31:49.590Z,96054.63
2023-03-28T23:34:16.479Z,96044.22
2023-03-28T23:36:46.024Z,96053.00
2023-03-28T23:39:13.397Z,96053.28
2023-03-28T23:41:40.702Z,96057.63
2023-03-28T23:44:07.784Z,96058.56
2023-03-28T23:46:34.281Z,96071.56
2023-03-28T23:49:00.734Z,96056.25
2023-03-28T23:51:29.130Z,96056.25
2023-03-28T23:53:56.322Z,96072.97
2023-03-28T23:56:23.928Z,96068.69
2023-03-28T23:58:50.911Z,96065.84
